createdAt,value
2023-04-08T00:01:18.762Z,5.80
2023-04-08T00:03:46.340Z,5.95
2023-04-08T00:06:13.360Z,7.93
2023-04-08T00:08:40.314Z,6.97
2023-04-08T00:11:07.205Z,7.68
2023-04-08T00:13:34.096Z,5.93
2023-04-08T00:16:01.215Z,5.38
2023-04-08T00:18:28.291Z,5.30
2023-04-08T00:20:57.068Z,4.97
2023-04-08T00:23:23.992Z,4.97
2023-04-08T00:25:51.181Z,5.28
2023-04-08T00:28:18.111Z,5.43
2023-04-08T00:30:45.739Z,5.57
2023-04-08T00:33:12.797Z,4.82
2023-04-08T00:35:39.799Z,4.57
2023-04-08T00:38:08.084Z,5.65
2023-04-08T00:40:35.544Z,5.25
2023-04-08T00:43:02.723Z,5.35
2023-04-08T00:45:29.734Z,4.97
2023-04-08T00:47:57.111Z,5.13
2023-04-08T00:50:24.565Z,4.97
2023-04-08T00:52:51.507Z,5.10
2023-04-08T00:55:18.437Z,5.00
2023-04-08T00:57:46.658Z,5.15
2023-04-08T01:00:15.160Z,5.03
2023-04-08T01:03:17.447Z,4.90
2023-04-08T01:08:18.878Z,4.95
2023-04-08T01:10:52.154Z,4.40
2023-04-08T01:13:21.034Z,4.88
2023-04-08T01:15:50.622Z,4.63
2023-04-08T01:18:18.684Z,5.40
2023-04-08T01:20:46.809Z,6.28
2023-04-08T01:23:30.077Z,5.47
2023-04-08T01:25:58.380Z,4.45
2023-04-08T01:28:31.357Z,5.13
2023-04-08T01:31:01.681Z,4.30
2023-04-08T01:33:29.720Z,4.57
2023-04-08T01:35:59.107Z,4.55
2023-04-08T01:38:27.192Z,4.68
2023-04-08T01:40:55.779Z,5.00
2023-04-08T01:43:24.504Z,4.68
2023-04-08T01:45:54.496Z,4.55
2023-04-08T01:50:51.270Z,4.93
2023-04-08T01:53:18.562Z,4.68
2023-04-08T01:55:46.113Z,6.28
2023-04-08T01:58:20.577Z,4.93
2023-04-08T02:00:47.975Z,5.70
2023-04-08T02:03:19.502Z,5.05
2023-04-08T02:05:46.845Z,4.55
2023-04-08T02:08:13.748Z,5.15
2023-04-08T02:10:40.806Z,5.30
2023-04-08T02:13:08.328Z,5.57
2023-04-08T02:15:38.360Z,4.90
2023-04-08T02:20:51.438Z,5.45
2023-04-08T02:23:24.657Z,5.47
2023-04-08T02:25:54.429Z,5.82
2023-04-08T02:28:21.660Z,5.18
2023-04-08T02:30:52.753Z,5.10
2023-04-08T02:33:22.742Z,5.05
2023-04-08T02:35:54.701Z,5.30
2023-04-08T02:38:24.116Z,5.18
2023-04-08T02:40:51.398Z,5.60
2023-04-08T02:43:18.393Z,5.70
2023-04-08T02:45:45.959Z,6.25
2023-04-08T02:48:13.097Z,5.97
2023-04-08T02:50:41.131Z,5.47
2023-04-08T02:53:09.488Z,5.45
2023-04-08T02:55:39.535Z,5.15
2023-04-08T02:58:06.434Z,5.90
2023-04-08T03:00:33.387Z,8.50
2023-04-08T03:03:01.058Z,6.20
2023-04-08T03:05:28.071Z,8.13
2023-04-08T03:07:55.053Z,7.50
2023-04-08T03:10:21.953Z,8.27
2023-04-08T03:12:48.904Z,7.07
2023-04-08T03:15:15.944Z,6.65
2023-04-08T03:17:43.034Z,6.40
2023-04-08T03:20:11.045Z,7.25
2023-04-08T03:22:37.999Z,6.78
2023-04-08T03:25:05.363Z,6.20
2023-04-08T03:27:32.463Z,6.00
2023-04-08T03:29:59.403Z,6.22
2023-04-08T03:32:26.451Z,6.60
2023-04-08T03:34:53.583Z,7.47
2023-04-08T03:37:20.635Z,6.40
2023-04-08T03:39:47.542Z,6.03
2023-04-08T03:42:14.558Z,6.07
2023-04-08T03:44:43.853Z,8.02
2023-04-08T03:47:10.769Z,5.72
2023-04-08T03:49:37.652Z,6.85
2023-04-08T03:52:04.636Z,6.45
2023-04-08T03:54:31.541Z,5.85
2023-04-08T03:56:58.461Z,6.70
2023-04-08T03:59:25.808Z,7.40
2023-04-08T04:01:53.670Z,6.93
2023-04-08T04:04:21.275Z,8.93
2023-04-08T04:06:48.618Z,8.65
2023-04-08T04:09:16.725Z,10.10
2023-04-08T04:11:43.642Z,8.77
2023-04-08T04:14:10.583Z,8.55
2023-04-08T04:16:38.076Z,8.93
2023-04-08T04:19:05.117Z,6.93
2023-04-08T04:21:32.338Z,6.63
2023-04-08T04:23:59.237Z,9.57
2023-04-08T04:26:26.132Z,6.93
2023-04-08T04:28:53.250Z,6.63
2023-04-08T04:31:28.304Z,8.45
2023-04-08T04:33:55.595Z,6.13
2023-04-08T04:36:22.594Z,6.75
2023-04-08T04:38:51.098Z,6.97
2023-04-08T04:41:18.293Z,6.50
2023-04-08T04:43:45.723Z,7.22
2023-04-08T04:46:12.625Z,7.80
2023-04-08T04:48:39.603Z,7.30
2023-04-08T04:51:07.524Z,8.27
2023-04-08T04:53:34.580Z,7.93
2023-04-08T04:56:01.888Z,8.80
2023-04-08T04:58:29.675Z,9.40
2023-04-08T05:00:56.961Z,8.20
2023-04-08T05:03:24.107Z,8.25
2023-04-08T05:05:53.004Z,8.57
2023-04-08T05:08:21.160Z,8.80
2023-04-08T05:10:50.178Z,11.27
2023-04-08T05:13:18.259Z,11.52
2023-04-08T05:15:47.834Z,10.07
2023-04-08T05:18:15.022Z,9.07
2023-04-08T05:20:42.096Z,10.55
2023-04-08T05:23:09.142Z,10.00
2023-04-08T05:25:36.355Z,10.65
2023-04-08T05:28:03.925Z,10.68
2023-04-08T05:30:30.983Z,9.88
2023-04-08T05:33:00.033Z,10.18
2023-04-08T05:35:28.431Z,11.80
2023-04-08T05:37:55.400Z,12.38
2023-04-08T05:40:22.376Z,11.68
2023-04-08T05:42:49.326Z,12.02
2023-04-08T05:45:16.362Z,12.35
2023-04-08T05:47:43.363Z,11.55
2023-04-08T05:50:11.397Z,12.90
2023-04-08T05:52:45.032Z,13.50
2023-04-08T05:55:13.420Z,10.70
2023-04-08T05:57:41.127Z,11.15
2023-04-08T06:00:10.689Z,11.88
2023-04-08T06:02:38.348Z,10.75
2023-04-08T06:05:06.582Z,12.23
2023-04-08T06:07:34.087Z,10.65
2023-04-08T06:10:01.041Z,13.77
2023-04-08T06:12:27.978Z,12.10
2023-04-08T06:14:56.251Z,13.85
2023-04-08T06:17:23.277Z,11.70
2023-04-08T06:19:50.384Z,12.82
2023-04-08T06:22:17.285Z,11.88
2023-04-08T06:24:44.225Z,11.15
2023-04-08T06:27:11.193Z,12.57
2023-04-08T06:29:38.085Z,11.40
2023-04-08T06:32:06.197Z,13.25
2023-04-08T06:34:33.270Z,12.10
2023-04-08T06:37:00.305Z,12.35
2023-04-08T06:39:27.241Z,12.48
2023-04-08T06:41:54.725Z,11.32
2023-04-08T06:44:44.002Z,11.88
2023-04-08T06:47:11.020Z,11.45
2023-04-08T06:49:38.031Z,12.65
2023-04-08T06:52:08.249Z,13.00
2023-04-08T06:54:35.171Z,13.07
2023-04-08T06:57:12.372Z,14.43
2023-04-08T06:59:39.506Z,14.95
2023-04-08T07:02:06.714Z,13.73
2023-04-08T07:04:33.721Z,13.20
2023-04-08T07:07:00.771Z,13.93
2023-04-08T07:09:28.326Z,13.95
2023-04-08T07:11:55.796Z,14.10
2023-04-08T07:14:22.747Z,13.55
2023-04-08T07:16:49.674Z,14.55
2023-04-08T07:19:16.595Z,12.88
2023-04-08T07:21:43.644Z,15.25
2023-04-08T07:24:10.617Z,13.02
2023-04-08T07:26:38.749Z,14.45
2023-04-08T07:29:05.697Z,12.68
2023-04-08T07:31:35.752Z,12.52
2023-04-08T07:36:29.505Z,12.80
2023-04-08T07:38:56.384Z,14.00
2023-04-08T07:41:23.273Z,13.50
2023-04-08T07:43:50.363Z,12.07
2023-04-08T07:46:17.289Z,12.52
2023-04-08T07:48:44.215Z,12.02
2023-04-08T07:51:11.745Z,11.57
2023-04-08T07:53:40.449Z,9.63
2023-04-08T07:56:16.221Z,10.80
2023-04-08T07:58:43.725Z,11.48
2023-04-08T08:01:24.462Z,12.43
2023-04-08T08:03:53.408Z,12.45
2023-04-08T08:06:22.137Z,10.43
2023-04-08T08:08:49.131Z,11.43
2023-04-08T08:11:16.208Z,12.13
2023-04-08T08:13:43.287Z,11.93
2023-04-08T08:16:11.705Z,11.48
2023-04-08T08:18:40.563Z,11.45
2023-04-08T08:21:08.123Z,10.75
2023-04-08T08:23:35.114Z,11.38
2023-04-08T08:26:04.118Z,10.93
2023-04-08T08:28:31.161Z,10.55
2023-04-08T08:30:58.759Z,11.88
2023-04-08T08:33:26.219Z,11.45
2023-04-08T08:35:57.950Z,10.73
2023-04-08T08:38:25.359Z,11.60
2023-04-08T08:41:00.248Z,13.10
2023-04-08T08:43:29.111Z,10.48
2023-04-08T08:45:56.409Z,12.05
2023-04-08T08:48:23.514Z,12.27
2023-04-08T08:50:50.717Z,12.60
2023-04-08T08:53:17.745Z,12.88
2023-04-08T08:56:13.760Z,12.70
2023-04-08T08:58:31.982Z,13.77
2023-04-08T09:00:58.920Z,13.27
2023-04-08T09:03:28.515Z,12.70
2023-04-08T09:08:43.384Z,15.32
2023-04-08T09:11:14.388Z,15.60
2023-04-08T09:13:41.916Z,14.65
2023-04-08T09:16:15.041Z,16.67
2023-04-08T09:18:45.976Z,19.15
2023-04-08T09:21:15.021Z,14.93
2023-04-08T09:23:48.033Z,14.75
2023-04-08T09:26:24.280Z,17.80
2023-04-08T09:29:24.176Z,16.30
2023-04-08T09:32:01.235Z,16.75
2023-04-08T09:34:29.861Z,15.40
2023-04-08T09:36:56.910Z,17.42
2023-04-08T09:39:24.111Z,15.95
2023-04-08T09:41:52.609Z,17.10
2023-04-08T09:44:21.960Z,15.10
2023-04-08T09:47:09.106Z,16.88
2023-04-08T09:49:46.823Z,15.38
2023-04-08T09:52:46.002Z,15.52
2023-04-08T09:55:22.232Z,14.93
2023-04-08T09:58:02.321Z,13.82
2023-04-08T10:00:44.105Z,17.02
2023-04-08T10:03:28.321Z,16.60
2023-04-08T10:05:59.792Z,15.52
2023-04-08T10:08:27.725Z,17.40
2023-04-08T10:10:56.340Z,14.48
2023-04-08T10:13:24.375Z,14.15
2023-04-08T10:15:51.297Z,16.45
2023-04-08T10:18:22.140Z,14.55
2023-04-08T10:20:49.396Z,16.25
2023-04-08T10:23:21.092Z,14.43
2023-04-08T10:25:49.335Z,14.07
2023-04-08T10:28:18.764Z,17.08
2023-04-08T10:30:56.176Z,13.70
2023-04-08T10:33:40.077Z,14.93
2023-04-08T10:36:09.771Z,18.52
2023-04-08T10:38:37.114Z,15.60
2023-04-08T10:41:04.285Z,16.33
2023-04-08T10:43:35.187Z,15.90
2023-04-08T10:46:03.007Z,15.95
2023-04-08T10:48:29.975Z,16.58
2023-04-08T10:51:04.783Z,14.73
2023-04-08T10:53:36.980Z,14.73
2023-04-08T10:56:15.464Z,17.58
2023-04-08T10:58:56.314Z,16.05
2023-04-08T11:01:23.687Z,15.60
2023-04-08T11:03:51.379Z,15.93
2023-04-08T11:06:19.478Z,16.05
2023-04-08T11:08:47.263Z,15.35
2023-04-08T11:11:15.491Z,14.10
2023-04-08T11:13:52.730Z,15.50
2023-04-08T11:16:22.687Z,16.63
2023-04-08T11:18:51.374Z,14.68
2023-04-08T11:21:18.462Z,16.17
2023-04-08T11:23:45.552Z,14.57
2023-04-08T11:26:13.795Z,16.05
2023-04-08T11:28:40.761Z,15.13
2023-04-08T11:31:09.114Z,14.70
2023-04-08T11:33:36.367Z,19.35
2023-04-08T11:36:08.524Z,16.08
2023-04-08T11:38:41.510Z,15.65
2023-04-08T11:41:09.425Z,15.85
2023-04-08T11:43:36.693Z,15.80
2023-04-08T11:46:13.090Z,16.58
2023-04-08T11:48:40.100Z,14.52
2023-04-08T11:51:12.518Z,15.07
2023-04-08T11:53:39.522Z,15.20
2023-04-08T11:56:20.368Z,14.38
2023-04-08T11:58:47.752Z,15.93
2023-04-08T12:01:14.907Z,15.90
2023-04-08T12:04:00.509Z,15.77
2023-04-08T12:06:28.911Z,18.13
2023-04-08T12:08:57.466Z,17.83
2023-04-08T12:11:24.727Z,16.58
2023-04-08T12:13:52.621Z,16.25
2023-04-08T12:16:20.635Z,15.80
2023-04-08T12:18:47.894Z,15.13
2023-04-08T12:21:14.868Z,16.50
2023-04-08T12:23:41.841Z,14.50
2023-04-08T12:26:08.880Z,17.52
2023-04-08T12:28:36.332Z,15.10
2023-04-08T12:31:03.821Z,13.45
2023-04-08T12:33:31.811Z,13.88
2023-04-08T12:35:59.354Z,13.05
2023-04-08T12:38:27.075Z,14.70
2023-04-08T12:40:55.000Z,14.25
2023-04-08T12:43:23.665Z,14.57
2023-04-08T12:45:51.739Z,16.35
2023-04-08T12:48:18.903Z,12.95
2023-04-08T12:50:46.059Z,13.90
2023-04-08T12:53:13.078Z,14.23
2023-04-08T12:55:40.170Z,15.82
2023-04-08T12:58:07.311Z,14.10
2023-04-08T13:00:34.369Z,13.95
2023-04-08T13:03:01.873Z,13.85
2023-04-08T13:05:40.171Z,14.52
2023-04-08T13:08:09.430Z,13.70
2023-04-08T13:10:36.407Z,13.32
2023-04-08T13:13:03.697Z,12.63
2023-04-08T13:15:30.857Z,11.20
2023-04-08T13:17:57.770Z,13.63
2023-04-08T13:20:26.239Z,13.23
2023-04-08T13:22:53.725Z,13.50
2023-04-08T13:25:21.118Z,13.93
2023-04-08T13:27:48.183Z,15.18
2023-04-08T13:30:15.519Z,15.50
2023-04-08T13:32:42.554Z,14.43
2023-04-08T13:35:09.784Z,12.32
2023-04-08T13:37:36.984Z,12.95
2023-04-08T13:40:05.215Z,12.00
2023-04-08T13:42:32.849Z,14.38
2023-04-08T13:45:00.184Z,13.32
2023-04-08T13:47:28.954Z,16.20
2023-04-08T13:49:55.885Z,12.75
2023-04-08T13:52:22.823Z,13.65
2023-04-08T13:54:49.772Z,12.93
2023-04-08T13:57:16.706Z,13.77
2023-04-08T13:59:44.837Z,13.88
2023-04-08T14:02:12.761Z,14.95
2023-04-08T14:04:40.001Z,14.13
2023-04-08T14:07:07.192Z,15.65
2023-04-08T14:09:34.118Z,15.50
2023-04-08T14:12:01.073Z,14.30
2023-04-08T14:14:28.034Z,14.45
2023-04-08T14:16:55.236Z,15.77
2023-04-08T14:19:22.243Z,14.52
2023-04-08T14:21:49.289Z,14.68
2023-04-08T14:24:16.462Z,13.60
2023-04-08T14:26:43.494Z,14.10
2023-04-08T14:29:10.538Z,15.70
2023-04-08T14:31:37.459Z,14.50
2023-04-08T14:34:04.985Z,16.48
2023-04-08T14:36:32.869Z,14.48
2023-04-08T14:39:00.218Z,13.63
2023-04-08T14:41:27.339Z,16.40
2023-04-08T14:43:54.375Z,14.57
2023-04-08T14:46:21.832Z,14.65
2023-04-08T14:48:49.300Z,14.73
2023-04-08T14:51:16.435Z,14.13
2023-04-08T14:53:43.389Z,14.38
2023-04-08T14:56:10.594Z,13.13
2023-04-08T14:58:40.409Z,15.02
2023-04-08T15:01:07.991Z,14.13
2023-04-08T15:03:35.122Z,14.68
2023-04-08T15:06:02.646Z,14.75
2023-04-08T15:08:29.554Z,12.98
2023-04-08T15:10:57.050Z,16.00
2023-04-08T15:13:24.051Z,13.30
2023-04-08T15:15:51.708Z,14.07
2023-04-08T15:18:18.741Z,14.75
2023-04-08T15:20:46.036Z,12.23
2023-04-08T15:23:13.135Z,14.95
2023-04-08T15:25:40.061Z,13.48
2023-04-08T15:28:07.075Z,13.48
2023-04-08T15:30:35.575Z,15.13
2023-04-08T15:33:05.871Z,15.43
2023-04-08T15:35:33.502Z,15.23
2023-04-08T15:38:00.823Z,13.57
2023-04-08T15:40:28.094Z,16.20
2023-04-08T15:42:56.041Z,15.15
2023-04-08T15:45:23.064Z,15.40
2023-04-08T15:47:50.029Z,17.25
2023-04-08T15:50:17.591Z,17.35
2023-04-08T15:52:44.947Z,16.45
2023-04-08T15:55:12.014Z,15.50
2023-04-08T15:57:39.116Z,16.15
2023-04-08T16:00:13.882Z,18.13
2023-04-08T16:02:42.244Z,14.60
2023-04-08T16:05:09.618Z,15.70
2023-04-08T16:07:37.378Z,19.25
2023-04-08T16:10:04.742Z,19.77
2023-04-08T16:12:32.709Z,16.30
2023-04-08T16:15:00.056Z,18.83
2023-04-08T16:17:28.075Z,16.42
2023-04-08T16:19:55.144Z,17.55
2023-04-08T16:22:22.119Z,17.38
2023-04-08T16:24:55.294Z,16.45
2023-04-08T16:27:22.882Z,16.55
2023-04-08T16:29:50.140Z,16.95
2023-04-08T16:32:17.047Z,19.35
2023-04-08T16:34:44.656Z,18.58
2023-04-08T16:37:13.209Z,17.90
2023-04-08T16:39:41.899Z,15.82
2023-04-08T16:42:08.961Z,15.55
2023-04-08T16:44:35.999Z,18.50
2023-04-08T16:47:02.926Z,15.65
2023-04-08T16:49:30.480Z,17.55
2023-04-08T16:51:57.463Z,19.45
2023-04-08T16:54:24.363Z,18.20
2023-04-08T16:56:51.346Z,50.95
2023-04-08T16:59:18.223Z,58.97
2023-04-08T17:01:45.208Z,52.88
2023-04-08T17:04:12.141Z,34.15
2023-04-08T17:06:41.430Z,47.63
2023-04-08T17:09:09.117Z,36.25
2023-04-08T17:11:36.060Z,41.70
2023-04-08T17:14:03.570Z,28.77
2023-04-08T17:16:31.145Z,35.00
2023-04-08T17:18:58.206Z,28.85
2023-04-08T17:21:26.094Z,23.88
2023-04-08T17:23:53.250Z,59.50
2023-04-08T17:26:22.232Z,32.42
2023-04-08T17:28:49.822Z,21.88
2023-04-08T17:31:16.829Z,32.42
2023-04-08T17:33:43.836Z,37.80
2023-04-08T17:36:11.870Z,46.78
2023-04-08T17:38:40.099Z,40.08
2023-04-08T17:41:08.103Z,24.17
2023-04-08T17:43:35.119Z,28.20
2023-04-08T17:46:02.177Z,19.02
2023-04-08T17:48:29.261Z,18.52
2023-04-08T17:51:04.844Z,16.45
2023-04-08T17:53:33.454Z,18.10
2023-04-08T17:56:01.241Z,15.70
2023-04-08T17:58:28.267Z,15.43
2023-04-08T18:00:55.308Z,16.10
2023-04-08T18:03:22.837Z,14.68
2023-04-08T18:05:50.364Z,14.77
2023-04-08T18:08:17.313Z,14.43
2023-04-08T18:10:45.220Z,15.25
2023-04-08T18:13:15.324Z,15.95
2023-04-08T18:15:43.268Z,16.52
2023-04-08T18:18:10.314Z,16.13
2023-04-08T18:20:37.654Z,16.30
2023-04-08T18:23:04.952Z,17.17
2023-04-08T18:25:32.594Z,16.25
2023-04-08T18:27:59.699Z,17.25
2023-04-08T18:30:26.899Z,17.35
2023-04-08T18:32:53.935Z,16.92
2023-04-08T18:35:21.183Z,17.75
2023-04-08T18:37:48.283Z,18.48
2023-04-08T18:40:15.486Z,18.10
2023-04-08T18:42:42.465Z,20.27
2023-04-08T18:45:09.947Z,18.55
2023-04-08T18:47:37.849Z,18.55
2023-04-08T18:50:06.474Z,18.58
2023-04-08T18:52:33.445Z,20.42
2023-04-08T18:55:01.213Z,20.10
2023-04-08T18:57:28.446Z,23.25
2023-04-08T18:59:55.460Z,20.50
2023-04-08T19:02:22.853Z,20.00
2023-04-08T19:04:49.970Z,20.52
2023-04-08T19:07:17.770Z,20.30
2023-04-08T19:09:44.807Z,20.95
2023-04-08T19:12:11.750Z,20.77
2023-04-08T19:14:39.498Z,21.70
2023-04-08T19:17:06.663Z,32.65
2023-04-08T19:19:33.554Z,63.55
2023-04-08T19:22:02.732Z,26.65
2023-04-08T19:24:29.644Z,21.65
2023-04-08T19:26:56.611Z,22.85
2023-04-08T19:29:24.377Z,18.73
2023-04-08T19:31:51.261Z,19.30
2023-04-08T19:34:18.185Z,18.13
2023-04-08T19:36:45.508Z,18.75
2023-04-08T19:39:12.456Z,17.08
2023-04-08T19:41:39.395Z,15.38
2023-04-08T19:44:06.698Z,16.05
2023-04-08T19:46:33.913Z,16.30
2023-04-08T19:49:00.919Z,21.67
2023-04-08T19:51:29.173Z,16.90
2023-04-08T19:53:56.330Z,17.35
2023-04-08T19:56:23.344Z,17.08
2023-04-08T19:58:50.445Z,21.20
2023-04-08T20:01:18.160Z,19.50
2023-04-08T20:03:50.258Z,16.98
2023-04-08T20:06:17.965Z,19.13
2023-04-08T20:08:45.692Z,17.83
2023-04-08T20:11:13.060Z,17.63
2023-04-08T20:13:40.093Z,16.85
2023-04-08T20:16:07.535Z,18.67
2023-04-08T20:18:34.719Z,17.67
2023-04-08T20:21:01.668Z,19.92
2023-04-08T20:23:28.646Z,20.02
2023-04-08T20:25:56.572Z,18.50
2023-04-08T20:28:23.719Z,18.95
2023-04-08T20:30:51.634Z,78.93
2023-04-08T20:33:19.158Z,22.17
2023-04-08T20:35:46.782Z,19.73
2023-04-08T20:38:14.610Z,20.27
2023-04-08T20:40:45.144Z,20.35
2023-04-08T20:43:12.443Z,18.83
2023-04-08T20:45:39.412Z,19.80
2023-04-08T20:48:07.453Z,18.58
2023-04-08T20:50:34.757Z,17.50
2023-04-08T20:53:01.768Z,17.85
2023-04-08T20:55:28.842Z,17.25
2023-04-08T20:57:55.804Z,16.60
2023-04-08T21:00:22.761Z,17.75
2023-04-08T21:02:50.812Z,18.40
2023-04-08T21:05:17.969Z,18.77
2023-04-08T21:07:45.017Z,17.95
2023-04-08T21:10:14.096Z,17.60
2023-04-08T21:12:41.148Z,17.08
2023-04-08T21:15:08.850Z,17.77
2023-04-08T21:17:35.906Z,17.30
2023-04-08T21:20:04.356Z,17.88
2023-04-08T21:22:32.211Z,18.17
2023-04-08T21:24:59.163Z,15.98
2023-04-08T21:27:26.159Z,18.48
2023-04-08T21:29:53.340Z,17.63
2023-04-08T21:32:20.426Z,16.30
2023-04-08T21:34:47.568Z,20.23
2023-04-08T21:37:14.508Z,17.77
2023-04-08T21:39:41.458Z,16.70
2023-04-08T21:42:08.333Z,17.23
2023-04-08T21:44:35.293Z,18.25
2023-04-08T21:47:02.364Z,18.00
2023-04-08T21:49:32.352Z,71.97
2023-04-08T21:51:59.301Z,22.85
2023-04-08T21:54:26.268Z,19.80
2023-04-08T21:56:53.268Z,20.88
2023-04-08T21:59:20.529Z,18.70
2023-04-08T22:01:47.700Z,22.13
2023-04-08T22:04:14.871Z,20.30
2023-04-08T22:06:42.238Z,18.70
2023-04-08T22:09:09.129Z,20.92
2023-04-08T22:11:36.058Z,22.52
2023-04-08T22:14:02.947Z,20.85
2023-04-08T22:16:29.915Z,19.98
2023-04-08T22:18:57.113Z,20.88
2023-04-08T22:21:24.897Z,20.55
2023-04-08T22:23:54.727Z,21.40
2023-04-08T22:26:21.835Z,21.65
2023-04-08T22:28:48.798Z,19.92
2023-04-08T22:31:16.849Z,19.67
2023-04-08T22:33:43.871Z,22.00
2023-04-08T22:36:10.811Z,19.35
2023-04-08T22:38:37.885Z,40.30
2023-04-08T22:41:04.946Z,25.88
2023-04-08T22:43:31.922Z,20.77
2023-04-08T22:45:59.000Z,21.55
2023-04-08T22:48:25.906Z,20.77
2023-04-08T22:50:52.901Z,19.52
2023-04-08T22:53:20.046Z,20.73
2023-04-08T22:55:46.982Z,22.02
2023-04-08T22:58:13.909Z,18.77
2023-04-08T23:00:41.439Z,20.83
2023-04-08T23:03:08.527Z,21.05
2023-04-08T23:05:35.554Z,19.75
2023-04-08T23:08:02.721Z,20.02
2023-04-08T23:10:29.677Z,18.77
2023-04-08T23:12:56.604Z,18.40
2023-04-08T23:15:23.797Z,18.83
2023-04-08T23:17:50.835Z,18.15
2023-04-08T23:20:17.882Z,20.45
2023-04-08T23:22:44.911Z,18.73
2023-04-08T23:25:12.033Z,17.40
2023-04-08T23:27:39.105Z,18.08
2023-04-08T23:30:06.907Z,19.13
2023-04-08T23:32:35.415Z,17.30
2023-04-08T23:35:03.453Z,16.35
2023-04-08T23:37:32.962Z,18.10
2023-04-08T23:39:59.975Z,18.55
2023-04-08T23:42:27.293Z,16.05
2023-04-08T23:44:55.276Z,16.83
2023-04-08T23:47:22.478Z,17.45
2023-04-08T23:49:52.350Z,18.45
2023-04-08T23:52:22.204Z,18.08
2023-04-08T23:54:52.597Z,19.10
2023-04-08T23:57:20.606Z,15.45
2023-04-08T23:59:47.836Z,17.13
